Time;durP1;ratioP1;P1;durP2;ratioP2;P2;SDS_P1;SDS_P2;PMS_P1;PMS_P2;Temp;Humidity;BMP_temperature;BMP_pressure;BME280_temperature;BME280_humidity;BME280_pressure;Samples;Min_cycle;Max_cycle;Signal;HPM_P1;HPM_P2
2021/08/19 00:02:26;;;;;;;10.20;6.03;;;;;;;22.96;100.00;96340.97;5011078;28;20164;-53
2021/08/19 00:04:55;;;;;;;13.13;6.65;;;;;;;23.32;100.00;96333.06;5003179;28;20081;-49
2021/08/19 00:07:23;;;;;;;10.68;6.47;;;;;;;22.93;100.00;96338.75;5005167;28;20074;-56
2021/08/19 00:09:55;;;;;;;14.15;6.80;;;;;;;23.18;100.00;96335.94;5010189;28;20084;-52
2021/08/19 00:12:23;;;;;;;10.85;6.18;;;;;;;22.55;100.00;96330.88;5006519;28;20678;-53
2021/08/19 00:14:51;;;;;;;10.63;6.63;;;;;;;22.78;100.00;96334.75;5009445;28;20066;-51
2021/08/19 00:17:20;;;;;;;10.07;6.03;;;;;;;23.07;100.00;96325.13;5011750;28;20061;-50
2021/08/19 00:19:48;;;;;;;11.70;6.65;;;;;;;22.86;100.00;96329.91;5008729;28;20511;-49
2021/08/19 00:22:17;;;;;;;9.68;5.97;;;;;;;22.84;100.00;96320.41;5005118;28;20046;-54
2021/08/19 00:24:45;;;;;;;8.43;5.70;;;;;;;23.26;100.00;96321.34;5011503;28;20088;-53
2021/08/19 00:27:15;;;;;;;11.60;6.45;;;;;;;22.66;100.00;96319.38;5014994;28;20480;-54
2021/08/19 00:29:43;;;;;;;10.95;6.43;;;;;;;22.24;100.00;96318.38;5002570;28;20084;-52
2021/08/19 00:32:12;;;;;;;14.40;7.05;;;;;;;22.94;100.00;96316.16;5004985;28;20170;-55
2021/08/19 00:34:40;;;;;;;9.43;6.43;;;;;;;22.33;100.00;96308.16;5006849;28;20086;-51
2021/08/19 00:37:09;;;;;;;11.68;6.90;;;;;;;21.97;100.00;96310.53;5005408;28;20065;-54
2021/08/19 00:39:38;;;;;;;9.77;6.60;;;;;;;22.49;100.00;96308.38;4989036;28;20063;-54
2021/08/19 00:42:07;;;;;;;10.40;6.03;;;;;;;23.07;100.00;96301.75;4997102;28;20077;-50
2021/08/19 00:44:41;;;;;;;9.27;6.78;;;;;;;22.87;100.00;96312.72;5002782;28;20069;-47
2021/08/19 00:47:10;;;;;;;12.13;6.85;;;;;;;22.84;100.00;96304.28;4986892;28;20081;-48
2021/08/19 00:49:40;;;;;;;11.57;6.72;;;;;;;22.64;100.00;96312.56;5009960;28;20081;-50
2021/08/19 00:52:09;;;;;;;11.32;6.78;;;;;;;22.72;100.00;96312.28;4983075;28;20069;-52
2021/08/19 00:54:38;;;;;;;9.15;6.15;;;;;;;22.35;100.00;96306.06;4997937;28;20070;-51
2021/08/19 00:57:07;;;;;;;10.95;6.70;;;;;;;22.60;100.00;96309.50;4991567;28;20057;-54
2021/08/19 00:59:37;;;;;;;11.13;6.50;;;;;;;22.82;100.00;96299.13;4985760;28;20101;-48
2021/08/19 01:02:08;;;;;;;12.00;6.10;;;;;;;23.10;100.00;96301.28;4985892;28;20089;-49
2021/08/19 01:04:39;;;;;;;10.02;5.90;;;;;;;22.83;100.00;96297.25;5008353;28;20500;-52
2021/08/19 01:07:08;;;;;;;11.05;5.72;;;;;;;22.73;100.00;96298.59;4998376;28;20077;-54
2021/08/19 01:09:37;;;;;;;10.90;6.20;;;;;;;22.81;100.00;96294.78;5006569;28;20057;-51
2021/08/19 01:12:06;;;;;;;10.48;6.05;;;;;;;22.54;100.00;96294.31;4994438;28;20069;-49
2021/08/19 01:14:35;;;;;;;10.90;6.40;;;;;;;22.87;100.00;96296.56;4985256;28;20081;-53
2021/08/19 01:17:08;;;;;;;10.27;6.00;;;;;;;23.38;100.00;96297.19;4983347;28;20093;-48
2021/08/19 01:19:38;;;;;;;11.20;6.18;;;;;;;23.51;100.00;96291.59;5008332;28;20089;-58
2021/08/19 01:22:07;;;;;;;10.02;6.00;;;;;;;23.48;100.00;96299.31;5002994;28;20080;-49
2021/08/19 01:24:35;;;;;;;8.82;5.80;;;;;;;23.22;100.00;96301.31;5005099;28;20084;-48
2021/08/19 01:27:04;;;;;;;8.75;5.30;;;;;;;23.30;100.00;96300.19;5007938;28;20068;-48
2021/08/19 01:29:34;;;;;;;12.23;5.85;;;;;;;22.92;100.00;96295.91;5006319;28;20069;-49
2021/08/19 01:32:04;;;;;;;9.23;5.35;;;;;;;23.33;100.00;96305.94;5003773;28;20104;-51
2021/08/19 01:34:32;;;;;;;;;;;;;;;23.37;100.00;96309.00;5013012;28;20090;-48
2021/08/19 01:37:01;;;;;;;9.43;5.35;;;;;;;23.03;100.00;96310.50;5014933;28;19957;-50
2021/08/19 01:39:30;;;;;;;9.25;5.55;;;;;;;23.14;100.00;96304.34;5010265;28;20042;-54
2021/08/19 01:41:58;;;;;;;8.23;5.28;;;;;;;23.45;100.00;96309.47;5011385;28;20084;-47
2021/08/19 01:44:27;;;;;;;8.70;5.00;;;;;;;23.19;100.00;96309.84;5011632;28;20069;-50
2021/08/19 01:46:58;;;;;;;7.20;5.00;;;;;;;23.50;100.00;96306.09;5012142;28;20460;-47
2021/08/19 01:49:27;;;;;;;8.35;4.90;;;;;;;23.45;100.00;96301.41;5009471;28;20449;-51
2021/08/19 01:51:55;;;;;;;7.72;4.97;;;;;;;23.22;100.00;96298.63;5010536;28;20077;-46
2021/08/19 01:54:25;;;;;;;7.57;4.85;;;;;;;23.50;100.00;96299.88;5009677;28;20460;-47
2021/08/19 01:57:12;;;;;;;6.18;4.60;;;;;;;23.36;100.00;96302.78;5014700;28;20588;-49
2021/08/19 01:59:41;;;;;;;7.32;4.90;;;;;;;23.30;100.00;96298.31;5007422;28;20089;-54
2021/08/19 02:02:10;;;;;;;7.35;5.20;;;;;;;23.40;100.00;96305.81;5008547;28;20070;-50
2021/08/19 02:04:39;;;;;;;6.47;4.95;;;;;;;23.26;100.00;96305.19;5011049;28;20540;-53
2021/08/19 02:07:07;;;;;;;9.77;5.68;;;;;;;22.95;100.00;96300.84;4994945;28;20085;-49
2021/08/19 02:09:36;;;;;;;11.05;5.38;;;;;;;23.06;100.00;96310.88;4998311;28;20065;-47
2021/08/19 02:12:05;;;;;;;8.82;5.85;;;;;;;23.12;100.00;96306.41;5000579;28;20081;-48
2021/08/19 02:14:34;;;;;;;8.57;5.28;;;;;;;23.20;100.00;96312.31;5000481;28;20065;-54
2021/08/19 02:17:02;;;;;;;9.38;6.07;;;;;;;22.95;100.00;96299.00;5008762;28;20155;-50
2021/08/19 02:19:32;;;;;;;9.25;5.57;;;;;;;22.71;100.00;96303.41;5010593;28;20161;-50
2021/08/19 02:22:01;;;;;;;8.27;5.50;;;;;;;23.10;100.00;96300.47;5011485;28;20073;-53
2021/08/19 02:24:29;;;;;;;8.20;5.18;;;;;;;22.74;100.00;96302.94;5007803;28;20469;-48
2021/08/19 02:26:58;;;;;;;8.23;5.55;;;;;;;22.76;100.00;96302.72;5011219;28;20072;-49
2021/08/19 02:29:26;;;;;;;7.18;5.10;;;;;;;23.27;100.00;96301.47;5008266;28;20062;-49
2021/08/19 02:31:54;;;;;;;7.18;5.28;;;;;;;23.12;100.00;96303.72;5008577;28;20081;-47
2021/08/19 02:34:24;;;;;;;7.90;5.47;;;;;;;22.66;100.00;96299.75;5010770;28;20045;-49
2021/08/19 02:36:54;;;;;;;8.05;5.00;;;;;;;22.95;100.00;96300.84;5011729;28;20169;-53
2021/08/19 02:39:23;;;;;;;8.23;5.30;;;;;;;23.08;100.00;96306.06;5009807;28;20465;-50
2021/08/19 02:41:51;;;;;;;8.30;4.88;;;;;;;22.61;100.00;96302.25;5010737;28;20073;-53
2021/08/19 02:44:19;;;;;;;7.47;4.57;;;;;;;22.64;100.00;96304.50;5008181;28;20471;-52
2021/08/19 02:46:48;;;;;;;7.43;4.47;;;;;;;22.66;100.00;96297.88;5007839;28;20093;-52
2021/08/19 02:49:16;;;;;;;7.57;4.85;;;;;;;23.06;100.00;96297.41;5006850;28;20644;-54
2021/08/19 02:51:45;;;;;;;8.15;4.80;;;;;;;22.75;100.00;96303.78;5005780;28;20145;-47
2021/08/19 02:54:14;;;;;;;7.68;5.22;;;;;;;23.08;100.00;96307.94;5003229;28;20077;-49
2021/08/19 02:56:43;;;;;;;6.78;4.78;;;;;;;22.99;100.00;96304.75;5009274;28;20069;-49
2021/08/19 02:59:11;;;;;;;8.57;4.80;;;;;;;23.05;100.00;96303.00;5010396;28;20080;-51
2021/08/19 03:01:40;;;;;;;8.00;5.20;;;;;;;22.96;100.00;96295.25;5009780;28;20081;-51
2021/08/19 03:04:09;;;;;;;9.07;5.40;;;;;;;22.26;100.00;96306.38;5003758;28;20107;-57
2021/08/19 03:06:37;;;;;;;9.43;5.00;;;;;;;22.86;100.00;96310.25;4995462;28;20072;-48
2021/08/19 03:09:06;;;;;;;10.45;5.72;;;;;;;21.69;100.00;96304.78;4996536;28;20088;-51
2021/08/19 03:11:36;;;;;;;8.25;5.53;;;;;;;22.17;100.00;96307.69;5007904;28;20065;-46
2021/08/19 03:14:04;;;;;;;8.77;5.55;;;;;;;22.41;100.00;96305.19;5010723;28;20081;-50
2021/08/19 03:16:33;;;;;;;8.95;5.13;;;;;;;22.48;100.00;96303.25;5006017;28;20088;-49
2021/08/19 03:19:02;;;;;;;8.05;5.07;;;;;;;22.01;100.00;96311.72;5005076;28;20119;-51
2021/08/19 03:21:31;;;;;;;7.97;5.15;;;;;;;22.64;100.00;96296.44;5007512;28;20072;-53
2021/08/19 03:23:59;;;;;;;7.57;4.90;;;;;;;21.83;100.00;96310.88;5009943;28;20417;-49
2021/08/19 03:26:28;;;;;;;11.57;5.03;;;;;;;22.13;100.00;96303.78;5007205;28;20080;-50
2021/08/19 03:28:58;;;;;;;8.13;5.47;;;;;;;21.56;100.00;96306.50;5015079;28;20074;-53
2021/08/19 03:31:27;;;;;;;7.93;5.20;;;;;;;21.94;100.00;96305.59;5010520;28;20034;-51
2021/08/19 03:33:55;;;;;;;8.57;5.13;;;;;;;21.88;100.00;96303.78;5005818;28;20053;-48
2021/08/19 03:36:25;;;;;;;9.95;5.50;;;;;;;22.10;100.00;96306.91;5007743;28;20077;-47
2021/08/19 03:38:53;;;;;;;8.40;5.43;;;;;;;22.28;100.00;96311.50;5009988;28;20084;-50
2021/08/19 03:41:22;;;;;;;9.35;5.07;;;;;;;22.13;100.00;96305.66;5006118;28;20884;-48
2021/08/19 03:43:50;;;;;;;9.32;5.75;;;;;;;21.94;100.00;96302.91;5006807;28;20081;-48
2021/08/19 03:46:20;;;;;;;8.90;5.10;;;;;;;22.03;100.00;96306.97;5016320;28;22399;-51
2021/08/19 03:48:49;;;;;;;6.63;5.40;;;;;;;22.34;100.00;96302.56;5009429;28;20037;-54
2021/08/19 03:51:17;;;;;;;9.20;5.72;;;;;;;22.52;100.00;96296.38;5012894;28;20060;-48
2021/08/19 03:53:53;;;;;;;8.23;5.22;;;;;;;22.51;100.00;96292.06;5005876;28;20062;-53
2021/08/19 03:56:21;;;;;;;8.90;5.75;;;;;;;22.65;100.00;96293.53;5023894;28;20715;-50
2021/08/19 03:58:50;;;;;;;7.25;5.32;;;;;;;22.58;100.00;96298.19;5011079;28;20503;-53
2021/08/19 04:01:19;;;;;;;7.18;5.45;;;;;;;22.16;100.00;96305.22;5004693;28;20061;-50
2021/08/19 04:03:48;;;;;;;8.82;5.38;;;;;;;22.28;100.00;96306.13;5003799;28;20068;-53
2021/08/19 04:06:17;;;;;;;8.35;5.18;;;;;;;22.09;100.00;96301.75;5007519;28;20073;-52
2021/08/19 04:08:45;;;;;;;10.15;5.40;;;;;;;22.11;100.00;96303.16;5004157;28;20057;-48
2021/08/19 04:11:14;;;;;;;9.05;5.30;;;;;;;21.81;100.00;96311.06;5003751;28;20058;-48
2021/08/19 04:13:42;;;;;;;7.78;4.93;;;;;;;21.55;100.00;96318.28;5006756;28;20085;-50
2021/08/19 04:16:11;;;;;;;7.47;5.45;;;;;;;21.85;100.00;96314.97;5006108;28;20122;-54
2021/08/19 04:18:40;;;;;;;6.00;4.50;;;;;;;22.08;100.00;96308.97;5002574;28;20084;-50
2021/08/19 04:21:09;;;;;;;8.80;5.70;;;;;;;22.26;100.00;96313.59;5005799;28;20061;-50
2021/08/19 04:23:41;;;;;;;7.32;5.40;;;;;;;22.63;100.00;96313.63;5005906;28;20568;-49
2021/08/19 04:26:10;;;;;;;7.38;5.43;;;;;;;21.78;100.00;96322.25;5002972;28;20077;-53
2021/08/19 04:28:39;;;;;;;7.82;5.47;;;;;;;21.97;100.00;96323.94;5007621;28;20085;-55
2021/08/19 04:31:07;;;;;;;9.82;5.38;;;;;;;21.98;100.00;96319.41;5006840;28;20065;-52
2021/08/19 04:33:36;;;;;;;8.23;5.13;;;;;;;21.87;100.00;96325.50;5010496;28;20071;-50
2021/08/19 04:36:06;;;;;;;6.97;5.20;;;;;;;21.27;100.00;96324.00;5003211;28;20068;-52
2021/08/19 04:38:35;;;;;;;7.50;5.32;;;;;;;21.65;100.00;96325.88;5005649;28;20088;-49
2021/08/19 04:41:03;;;;;;;9.10;5.60;;;;;;;21.09;100.00;96326.56;5010142;28;20087;-52
2021/08/19 04:43:32;;;;;;;8.68;5.70;;;;;;;21.47;100.00;96325.75;5015443;28;20100;-49
2021/08/19 04:46:00;;;;;;;9.43;5.40;;;;;;;21.18;100.00;96321.78;4997142;28;20408;-54
2021/08/19 04:48:29;;;;;;;8.52;5.25;;;;;;;20.90;100.00;96322.97;5002135;28;20070;-53
2021/08/19 04:50:57;;;;;;;7.63;5.20;;;;;;;21.02;100.00;96318.56;4988462;28;20062;-56
2021/08/19 04:53:27;;;;;;;7.97;4.80;;;;;;;21.22;100.00;96323.00;4982070;28;20070;-51
2021/08/19 04:55:56;;;;;;;10.35;6.03;;;;;;;21.23;100.00;96327.31;4982808;28;20077;-56
2021/08/19 04:58:27;;;;;;;12.23;5.60;;;;;;;21.85;100.00;96323.03;5005205;28;20155;-55
2021/08/19 05:00:56;;;;;;;7.32;4.85;;;;;;;21.30;100.00;96320.91;4998728;28;20041;-52
2021/08/19 05:03:25;;;;;;;8.48;5.97;;;;;;;21.56;100.00;96325.28;5013117;28;20054;-56
2021/08/19 05:05:54;;;;;;;7.38;4.70;;;;;;;21.93;100.00;96319.25;4999612;28;20072;-51
2021/08/19 05:08:22;;;;;;;6.70;5.03;;;;;;;21.63;100.00;96329.81;5003670;28;20073;-52
2021/08/19 05:10:52;;;;;;;7.22;5.38;;;;;;;21.37;100.00;96323.59;5009646;28;20061;-56
2021/08/19 05:13:21;;;;;;;7.50;5.00;;;;;;;21.50;100.00;96323.47;5006233;28;20042;-53
2021/08/19 05:15:50;;;;;;;9.55;5.82;;;;;;;21.71;100.00;96318.78;5003945;28;20104;-54
2021/08/19 05:18:18;;;;;;;9.02;5.47;;;;;;;21.93;100.00;96319.25;5006213;28;20088;-53
2021/08/19 05:20:47;;;;;;;8.48;5.30;;;;;;;22.68;100.00;96319.16;5012815;28;20061;-57
2021/08/19 05:23:15;;;;;;;8.05;4.97;;;;;;;22.05;100.00;96326.34;5012793;28;20061;-56
2021/08/19 05:25:44;;;;;;;7.22;5.28;;;;;;;22.59;100.00;96324.00;5009510;28;20088;-52
2021/08/19 05:28:14;;;;;;;9.98;4.82;;;;;;;22.96;100.00;96321.34;5015262;28;20062;-53
2021/08/19 05:30:42;;;;;;;7.90;5.28;;;;;;;22.85;100.00;96316.66;5017625;28;20461;-53
2021/08/19 05:33:11;;;;;;;8.48;5.22;;;;;;;22.67;100.00;96323.69;5008873;28;20072;-54
2021/08/19 05:35:39;;;;;;;8.23;5.50;;;;;;;22.95;100.00;96322.38;5009860;28;20065;-54
2021/08/19 05:38:08;;;;;;;7.30;5.22;;;;;;;22.92;100.00;96323.66;5023414;28;20038;-56
2021/08/19 05:40:36;;;;;;;9.05;5.38;;;;;;;22.78;100.00;96324.00;5014485;28;20519;-55
2021/08/19 05:43:06;;;;;;;7.65;5.00;;;;;;;23.17;100.00;96322.72;5010719;28;20452;-56
2021/08/19 05:45:35;;;;;;;8.32;4.75;;;;;;;23.06;100.00;96326.19;5015271;28;20061;-57
2021/08/19 05:48:05;;;;;;;7.50;5.00;;;;;;;22.86;100.00;96329.91;5006457;28;20057;-54
2021/08/19 05:50:34;;;;;;;8.32;5.28;;;;;;;22.70;100.00;96331.31;5006224;28;20096;-54
2021/08/19 05:53:05;;;;;;;8.27;4.88;;;;;;;23.82;100.00;96325.53;5020610;28;20520;-52
2021/08/19 05:55:33;;;;;;;7.75;4.85;;;;;;;22.88;100.00;96333.19;4988428;28;20073;-50
2021/08/19 05:58:01;;;;;;;7.20;4.68;;;;;;;23.50;100.00;96334.88;4987602;28;20131;-52
2021/08/19 06:00:30;;;;;;;5.63;4.60;;;;;;;22.77;100.00;96335.81;5001229;28;20675;-51
2021/08/19 06:03:00;;;;;;;8.57;5.20;;;;;;;22.72;100.00;96333.78;5007471;28;20070;-50
2021/08/19 06:05:29;;;;;;;7.75;4.68;;;;;;;22.80;100.00;96338.03;5004388;28;20058;-50
2021/08/19 06:07:57;;;;;;;6.75;4.65;;;;;;;23.06;100.00;96339.63;4976826;28;20096;-49
2021/08/19 06:10:26;;;;;;;7.75;5.10;;;;;;;22.78;100.00;96340.97;5011863;28;20108;-48
2021/08/19 06:12:54;;;;;;;8.50;4.72;;;;;;;22.59;100.00;96344.69;5008327;28;20073;-47
2021/08/19 06:15:23;;;;;;;7.28;4.50;;;;;;;23.45;100.00;96338.28;5010240;28;20080;-48
2021/08/19 06:17:51;;;;;;;7.57;5.15;;;;;;;22.63;100.00;96335.94;5018299;28;20073;-52
2021/08/19 06:20:21;;;;;;;6.43;4.85;;;;;;;23.59;100.00;96339.72;5007539;28;20064;-56
2021/08/19 06:22:51;;;;;;;7.07;4.97;;;;;;;23.20;100.00;96341.91;5014932;28;20093;-54
2021/08/19 06:25:21;;;;;;;8.70;4.43;;;;;;;22.70;100.00;96346.63;5009716;28;20438;-55
2021/08/19 06:27:50;;;;;;;6.90;4.95;;;;;;;22.60;100.00;96344.44;5010011;28;20583;-51
2021/08/19 06:30:18;;;;;;;8.88;4.57;;;;;;;22.54;100.00;96347.22;5009561;28;20077;-52
2021/08/19 06:32:47;;;;;;;7.45;4.35;;;;;;;22.89;100.00;96342.91;5007918;28;20045;-53
2021/08/19 06:35:16;;;;;;;7.70;4.60;;;;;;;23.30;100.00;96348.63;5011433;28;20702;-50
2021/08/19 06:37:46;;;;;;;7.55;4.20;;;;;;;22.81;100.00;96345.06;5011756;28;20100;-54
2021/08/19 06:40:14;;;;;;;6.57;4.57;;;;;;;22.50;100.00;96342.31;5012005;28;20066;-49
2021/08/19 06:42:42;;;;;;;7.55;4.88;;;;;;;23.13;100.00;96349.25;5004609;28;20543;-52
2021/08/19 06:45:12;;;;;;;8.13;4.40;;;;;;;23.05;100.00;96351.41;5011147;28;20068;-52
2021/08/19 06:47:40;;;;;;;6.43;4.80;;;;;;;22.87;100.00;96344.16;5006095;28;20058;-53
2021/08/19 06:50:10;;;;;;;8.82;4.75;;;;;;;23.24;100.00;96347.66;5004310;28;20078;-55
2021/08/19 06:52:40;;;;;;;7.82;4.78;;;;;;;23.08;100.00;96351.78;5016519;28;20092;-50
2021/08/19 06:55:11;;;;;;;5.93;4.25;;;;;;;22.69;100.00;96353.06;4996160;28;20080;-56
2021/08/19 06:57:39;;;;;;;8.10;4.78;;;;;;;22.91;100.00;96353.41;5004633;28;20077;-51
2021/08/19 07:00:09;;;;;;;5.82;4.70;;;;;;;22.62;100.00;96349.63;5004165;28;20800;-54
2021/08/19 07:02:38;;;;;;;;;;;;;;;22.83;100.00;96351.84;5006448;28;20058;-49
2021/08/19 07:05:08;;;;;;;8.20;4.60;;;;;;;23.13;100.00;96353.81;5002033;28;20511;-50
2021/08/19 07:07:37;;;;;;;6.80;4.78;;;;;;;22.85;100.00;96346.25;5005362;28;20084;-52
2021/08/19 07:10:07;;;;;;;7.60;4.50;;;;;;;23.51;100.00;96350.81;5001069;28;20072;-49
2021/08/19 07:12:38;;;;;;;6.95;4.63;;;;;;;23.31;100.00;96350.28;5006172;28;20062;-53
2021/08/19 07:15:07;;;;;;;;;;;;;;;23.03;100.00;96343.59;5006892;28;20046;-53
2021/08/19 07:17:35;;;;;;;7.63;4.50;;;;;;;23.77;100.00;96346.94;5005404;28;19961;-49
2021/08/19 07:20:04;;;;;;;6.15;4.40;;;;;;;23.48;100.00;96342.38;5008467;28;20087;-49
2021/08/19 07:22:33;;;;;;;6.10;4.68;;;;;;;23.07;100.00;96347.47;5009583;28;20073;-51
2021/08/19 07:25:01;;;;;;;5.97;4.35;;;;;;;22.87;100.00;96344.97;5007698;28;20073;-49
2021/08/19 07:27:31;;;;;;;8.02;4.43;;;;;;;23.39;100.00;96347.25;5007006;28;20073;-49
2021/08/19 07:30:01;;;;;;;7.57;4.82;;;;;;;23.76;100.00;96348.00;4998311;28;20072;-50
2021/08/19 07:32:29;;;;;;;7.22;4.55;;;;;;;23.79;100.00;96344.84;5003823;28;20131;-46
2021/08/19 07:34:58;;;;;;;7.68;4.82;;;;;;;24.06;100.00;96349.81;5003443;28;20073;-51
2021/08/19 07:37:27;;;;;;;6.50;4.43;;;;;;;23.21;100.00;96351.63;5007780;28;20085;-50
2021/08/19 07:39:55;;;;;;;6.95;3.97;;;;;;;23.61;100.00;96347.56;5008656;28;20046;-46
2021/08/19 07:42:24;;;;;;;6.47;4.45;;;;;;;23.52;100.00;96344.38;4998422;28;20081;-52
2021/08/19 07:44:53;;;;;;;6.45;4.35;;;;;;;23.88;100.00;96343.47;5002449;28;20084;-49
2021/08/19 07:47:23;;;;;;;5.30;3.90;;;;;;;24.14;100.00;96352.16;5005760;28;20066;-47
2021/08/19 07:49:52;;;;;;;5.85;3.95;;;;;;;23.78;100.00;96347.75;4992957;28;20081;-57
2021/08/19 07:52:20;;;;;;;5.15;4.47;;;;;;;23.87;100.00;96354.44;4987489;28;21367;-49
2021/08/19 07:54:48;;;;;;;6.30;4.30;;;;;;;24.61;100.00;96355.69;5002694;28;21846;-46
2021/08/19 07:57:18;;;;;;;6.32;4.03;;;;;;;23.61;100.00;96355.66;4997231;28;20541;-50
2021/08/19 07:59:47;;;;;;;4.97;3.80;;;;;;;24.23;100.00;96358.84;5002267;28;20061;-56
2021/08/19 08:02:23;;;;;;;4.93;3.50;;;;;;;25.01;100.00;96346.81;4996358;28;20101;-51
2021/08/19 08:04:51;;;;;;;;;;;;;;;24.65;100.00;96356.06;4982818;28;20093;-57
2021/08/19 08:07:19;;;;;;;4.38;3.63;;;;;;;25.09;100.00;96356.44;4998309;28;19965;-51
2021/08/19 08:09:48;;;;;;;4.63;3.63;;;;;;;25.20;97.56;96358.31;5001713;28;20074;-49
2021/08/19 08:12:16;;;;;;;8.20;3.97;;;;;;;24.80;100.00;96359.06;5005773;28;20069;-50
2021/08/19 08:14:45;;;;;;;5.13;3.70;;;;;;;25.56;96.12;96348.19;5002021;28;20057;-50
2021/08/19 08:17:14;;;;;;;4.82;3.58;;;;;;;25.32;96.49;96366.34;5007254;28;20432;-51
2021/08/19 08:19:44;;;;;;;6.05;4.00;;;;;;;24.14;100.00;96365.63;5005463;28;20111;-48
2021/08/19 08:22:12;;;;;;;5.75;3.88;;;;;;;25.56;97.37;96361.69;5001572;28;20080;-52
2021/08/19 08:24:40;;;;;;;7.05;3.78;;;;;;;25.20;94.23;96362.91;4999531;28;20069;-54
2021/08/19 08:27:09;;;;;;;4.72;3.53;;;;;;;25.09;97.62;96367.25;5007599;28;20070;-49
2021/08/19 08:29:37;;;;;;;4.82;3.80;;;;;;;24.98;95.35;96371.59;5006144;28;20065;-52
2021/08/19 08:32:06;;;;;;;4.68;3.50;;;;;;;25.07;98.04;96370.16;5001878;28;20073;-46
2021/08/19 08:34:36;;;;;;;5.95;3.75;;;;;;;25.84;91.96;96366.25;5010362;28;20077;-53
2021/08/19 08:37:06;;;;;;;5.60;3.75;;;;;;;25.83;85.70;96378.13;5006990;28;20068;-53
2021/08/19 08:39:37;;;;;;;5.25;3.70;;;;;;;25.70;86.95;96379.22;5005526;28;20500;-51
2021/08/19 08:42:07;;;;;;;5.65;3.80;;;;;;;25.62;89.65;96379.63;5000426;28;20069;-50
2021/08/19 08:44:36;;;;;;;5.43;3.60;;;;;;;25.99;90.01;96384.66;4999635;28;20072;-50
2021/08/19 08:47:05;;;;;;;3.95;3.50;;;;;;;25.97;88.71;96379.47;5009476;28;20084;-50
2021/08/19 08:49:34;;;;;;;4.03;3.13;;;;;;;25.41;89.27;96380.31;5006168;28;20077;-50
2021/08/19 08:52:06;;;;;;;3.58;3.00;;;;;;;25.81;88.16;96380.28;5005802;28;20069;-48
2021/08/19 08:54:34;;;;;;;4.47;3.40;;;;;;;25.27;86.90;96383.28;5005614;28;20065;-51
2021/08/19 08:57:03;;;;;;;3.70;2.90;;;;;;;25.63;85.57;96381.25;5005979;28;20061;-46
2021/08/19 08:59:32;;;;;;;4.18;2.80;;;;;;;25.80;83.11;96382.13;5009167;28;20169;-46
2021/08/19 09:02:01;;;;;;;3.70;2.78;;;;;;;25.52;85.35;96387.53;5010637;28;20096;-50
2021/08/19 09:04:30;;;;;;;5.60;3.03;;;;;;;26.66;81.93;96387.34;5005838;28;20084;-46
2021/08/19 09:07:04;;;;;;;4.28;3.33;;;;;;;26.27;79.09;96384.56;5003972;28;20578;-50
2021/08/19 09:09:35;;;;;;;7.18;3.20;;;;;;;25.91;84.96;96390.44;5009227;28;20088;-50
2021/08/19 09:12:04;;;;;;;;;;;;;;;26.16;82.00;96390.06;5004870;28;20420;-54
2021/08/19 09:14:36;;;;;;;4.72;3.53;;;;;;;26.61;74.11;96392.69;5004042;28;19983;-54
2021/08/19 09:17:05;;;;;;;5.03;3.13;;;;;;;27.81;68.36;96394.78;5005623;28;20069;-46
2021/08/19 09:19:35;;;;;;;5.60;3.30;;;;;;;26.70;71.28;96391.22;5004985;28;20073;-51
2021/08/19 09:22:05;;;;;;;4.80;2.58;;;;;;;26.83;71.85;96389.19;5002336;28;20070;-55
2021/08/19 09:24:36;;;;;;;4.30;2.70;;;;;;;27.49;66.07;96383.81;5006362;28;20062;-51
2021/08/19 09:27:12;;;;;;;4.45;2.97;;;;;;;27.70;64.59;96388.38;5004734;28;20077;-55
2021/08/19 09:29:42;;;;;;;3.85;2.33;;;;;;;27.58;61.54;96388.53;5004517;28;20535;-54
2021/08/19 09:32:11;;;;;;;2.47;2.20;;;;;;;28.03;61.24;96383.88;5002988;28;20073;-54
2021/08/19 09:34:41;;;;;;;3.80;2.63;;;;;;;27.68;60.23;96380.53;5011228;28;20081;-53
2021/08/19 09:37:11;;;;;;;4.43;2.83;;;;;;;27.31;61.84;96379.56;4999594;28;20072;-48
2021/08/19 09:39:43;;;;;;;4.75;2.40;;;;;;;27.03;62.19;96381.38;5007349;28;20077;-53
2021/08/19 09:42:12;;;;;;;3.05;2.50;;;;;;;27.87;62.09;96386.44;5018020;28;22174;-52
2021/08/19 09:44:42;;;;;;;4.93;2.83;;;;;;;26.79;64.56;96382.66;5008093;28;20069;-51
2021/08/19 09:47:30;;;;;;;4.80;2.58;;;;;;;27.49;65.20;96379.22;5001822;28;20074;-53
2021/08/19 09:50:11;;;;;;;4.80;2.30;;;;;;;27.57;57.94;96367.94;5008947;28;20081;-53
2021/08/19 09:52:39;;;;;;;5.55;3.00;;;;;;;27.31;58.72;96377.66;5013210;28;20555;-49
2021/08/19 09:55:23;;;;;;;3.97;2.72;;;;;;;28.12;54.95;96377.72;5000915;28;20072;-52
2021/08/19 09:57:52;;;;;;;3.10;2.05;;;;;;;29.61;50.29;96370.50;5009982;28;20081;-55
2021/08/19 10:00:27;;;;;;;3.90;2.70;;;;;;;27.30;58.01;96377.94;5009783;28;20042;-49
2021/08/19 10:02:57;;;;;;;4.50;2.60;;;;;;;27.84;54.94;96372.56;5012442;28;20073;-52
2021/08/19 10:05:26;;;;;;;2.92;2.60;;;;;;;28.71;47.94;96367.88;5013555;28;20041;-54
2021/08/19 10:07:54;;;;;;;3.85;2.40;;;;;;;29.25;50.53;96357.59;5009666;28;20085;-54
2021/08/19 10:10:24;;;;;;;3.97;3.05;;;;;;;27.23;56.84;96361.06;5010291;28;20507;-50
2021/08/19 10:12:59;;;;;;;3.35;2.80;;;;;;;27.83;53.09;96363.63;5018742;28;20046;-53
2021/08/19 10:15:28;;;;;;;4.40;2.47;;;;;;;29.97;46.76;96355.88;5010175;28;20069;-48
2021/08/19 10:17:58;;;;;;;4.93;2.78;;;;;;;29.74;44.67;96359.09;5007672;28;20810;-49
2021/08/19 10:20:31;;;;;;;4.15;3.17;;;;;;;29.42;46.82;96359.25;5008145;28;20069;-48
2021/08/19 10:23:02;;;;;;;3.28;2.60;;;;;;;30.93;40.66;96356.06;5006396;28;20076;-52
2021/08/19 10:25:32;;;;;;;2.75;2.05;;;;;;;29.35;46.57;96362.22;5014328;28;20523;-52
2021/08/19 10:28:14;;;;;;;2.60;2.10;;;;;;;28.92;47.53;96363.38;5009363;28;20057;-50
2021/08/19 10:30:50;;;;;;;3.30;1.80;;;;;;;28.76;46.30;96354.31;5016137;28;20520;-48
2021/08/19 10:33:42;;;;;;;3.33;2.38;;;;;;;27.92;49.34;96361.28;4998829;28;20065;-47
2021/08/19 10:37:02;;;;;;;2.13;1.92;;;;;;;28.12;45.46;96360.66;5005443;28;20069;-52
2021/08/19 10:39:43;;;;;;;;;;;;;;;27.95;48.92;96358.06;5008790;28;20203;-51
2021/08/19 10:42:30;;;;;;;3.10;2.10;;;;;;;26.93;52.24;96351.47;5006590;28;19956;-55
2021/08/19 10:44:59;;;;;;;3.00;1.60;;;;;;;27.69;48.41;96346.94;5009420;28;20065;-53
2021/08/19 10:47:36;;;;;;;2.72;2.00;;;;;;;27.63;47.23;96344.41;5008194;28;20062;-48
2021/08/19 10:50:27;;;;;;;3.30;2.08;;;;;;;28.64;45.92;96351.81;5009181;28;20073;-53
2021/08/19 10:52:58;;;;;;;2.70;2.20;;;;;;;30.08;41.96;96350.44;5012211;28;20068;-49
2021/08/19 10:55:27;;;;;;;2.47;1.88;;;;;;;29.86;42.57;96345.25;5009522;28;20089;-48
2021/08/19 10:57:58;;;;;;;2.05;1.80;;;;;;;28.99;43.12;96353.09;5009202;28;20072;-54
2021/08/19 11:00:38;;;;;;;3.40;2.38;;;;;;;28.82;46.55;96350.56;5010947;28;20524;-55
2021/08/19 11:03:06;;;;;;;;;;;;;;;29.37;43.42;96349.19;5010578;28;20071;-51
2021/08/19 11:06:02;;;;;;;2.15;1.77;;;;;;;29.04;44.12;96348.53;5007474;28;19964;-54
2021/08/19 11:08:38;;;;;;;3.22;1.80;;;;;;;29.52;43.37;96338.34;4988292;28;20062;-53
2021/08/19 11:11:07;;;;;;;4.03;1.73;;;;;;;28.88;43.54;96345.97;5006841;28;20088;-52
2021/08/19 11:13:37;;;;;;;2.20;1.60;;;;;;;28.93;44.83;96349.53;5020472;28;20528;-50
2021/08/19 11:16:07;;;;;;;;;;;;;;;28.84;45.00;96342.97;5013108;28;20071;-54
2021/08/19 11:18:36;;;;;;;2.72;1.38;;;;;;;29.72;42.29;96334.88;5006698;28;19952;-51
2021/08/19 11:21:06;;;;;;;2.40;1.42;;;;;;;29.01;43.82;96332.78;5008248;28;20056;-51
2021/08/19 11:23:37;;;;;;;3.60;1.80;;;;;;;27.46;49.52;96331.00;5007250;28;20532;-52
2021/08/19 11:26:08;;;;;;;2.60;2.10;;;;;;;27.47;46.63;96329.91;5008244;28;20077;-49
2021/08/19 11:28:43;;;;;;;4.68;2.08;;;;;;;28.39;43.39;96333.50;5008845;28;20464;-50
2021/08/19 11:31:20;;;;;;;2.10;1.67;;;;;;;29.01;41.38;96324.63;5001770;28;20069;-51
2021/08/19 11:33:58;;;;;;;2.10;1.55;;;;;;;29.10;43.21;96322.19;5012092;28;20034;-55
2021/08/19 11:36:27;;;;;;;2.60;1.92;;;;;;;27.82;47.36;96332.19;5007182;28;20121;-52
2021/08/19 11:38:56;;;;;;;2.20;1.80;;;;;;;27.85;45.36;96333.56;5007424;28;20512;-46
2021/08/19 11:41:25;;;;;;;2.58;1.60;;;;;;;28.02;45.22;96341.56;5012305;28;20066;-50
2021/08/19 11:44:00;;;;;;;2.97;1.55;;;;;;;27.49;47.05;96327.75;5021663;28;20129;-51